Time;durP1;ratioP1;P1;durP2;ratioP2;P2;SDS_P1;SDS_P2;PMS_P1;PMS_P2;Temp;Humidity;BMP_temperature;BMP_pressure;BME280_temperature;BME280_humidity;BME280_pressure;Samples;Min_cycle;Max_cycle;Signal;HPM_P1;HPM_P2
2022/01/31 00:01:15;;;;;;;6.22;3.15;;;27.60;63.80;;;;;;4142794;28;20048;-70
2022/01/31 00:03:37;;;;;;;5.40;3.25;;;27.60;64.00;;;;;;4140967;28;20038;-71
2022/01/31 00:06:00;;;;;;;5.72;3.15;;;27.70;63.80;;;;;;4137612;28;20106;-69
2022/01/31 00:08:24;;;;;;;6.88;3.50;;;27.70;63.70;;;;;;4140014;28;20116;-71
2022/01/31 00:10:47;;;;;;;6.18;3.20;;;27.80;63.70;;;;;;4134946;28;20054;-70
2022/01/31 00:13:10;;;;;;;5.70;3.00;;;27.80;63.60;;;;;;4130271;28;20038;-79
2022/01/31 00:15:37;;;;;;;;;;;27.80;63.60;;;;;;4135277;28;20106;-78
2022/01/31 00:18:00;;;;;;;6.80;3.10;;;27.80;63.70;;;;;;4131843;28;19925;-78
2022/01/31 00:20:22;;;;;;;5.38;3.42;;;27.90;63.80;;;;;;4135520;28;20030;-78
2022/01/31 00:22:45;;;;;;;5.93;3.13;;;27.90;64.30;;;;;;4129418;28;20408;-78
2022/01/31 00:25:08;;;;;;;6.05;3.72;;;27.90;63.70;;;;;;4126049;28;20054;-78
2022/01/31 00:27:30;;;;;;;4.83;3.23;;;27.90;63.80;;;;;;4133847;28;20035;-80
2022/01/31 00:29:52;;;;;;;6.22;3.30;;;27.90;63.80;;;;;;4130609;28;20782;-77
2022/01/31 00:32:15;;;;;;;5.80;3.28;;;28.00;63.80;;;;;;4130482;28;20128;-78
2022/01/31 00:34:38;;;;;;;6.93;3.47;;;28.00;63.80;;;;;;4130768;28;20038;-79
2022/01/31 00:37:01;;;;;;;4.53;3.08;;;28.00;63.60;;;;;;4129158;28;20035;-80
2022/01/31 00:39:23;;;;;;;6.07;3.40;;;28.00;63.70;;;;;;4131899;28;20045;-79
2022/01/31 00:41:46;;;;;;;5.45;3.22;;;28.00;63.60;;;;;;4128800;28;20066;-79
2022/01/31 00:44:22;;;;;;;6.20;3.80;;;28.10;64.20;;;;;;4124439;28;20092;-78
2022/01/31 00:46:59;;;;;;;6.50;3.33;;;28.10;63.70;;;;;;4130152;28;20042;-77
2022/01/31 00:51:50;;;;;;;6.15;3.15;;;28.10;63.70;;;;;;4127945;28;20035;-80
2022/01/31 00:54:13;;;;;;;5.72;3.55;;;28.10;63.70;;;;;;4130662;28;20546;-79
2022/01/31 00:56:35;;;;;;;5.22;3.17;;;28.20;63.80;;;;;;4132129;28;20415;-79
2022/01/31 00:58:57;;;;;;;5.05;3.20;;;28.10;63.70;;;;;;4130415;28;20487;-78
2022/01/31 01:01:20;;;;;;;4.78;3.40;;;28.20;63.70;;;;;;4135538;28;20034;-79
2022/01/31 01:03:42;;;;;;;5.97;3.58;;;28.20;63.70;;;;;;4131978;28;20087;-79
2022/01/31 01:06:05;;;;;;;7.57;3.35;;;28.20;63.60;;;;;;4137622;28;20610;-78
2022/01/31 01:08:27;;;;;;;6.13;3.67;;;28.20;63.60;;;;;;4137062;28;20404;-77
2022/01/31 01:10:49;;;;;;;4.97;3.00;;;28.30;63.60;;;;;;4133697;28;20153;-79
2022/01/31 01:13:12;;;;;;;7.78;3.53;;;28.30;63.60;;;;;;4130483;28;20042;-78
2022/01/31 01:15:35;;;;;;;6.22;3.47;;;28.30;63.60;;;;;;4136737;28;20742;-79
2022/01/31 01:17:58;;;;;;;6.35;3.05;;;28.40;63.60;;;;;;4135440;28;20038;-80
2022/01/31 01:20:21;;;;;;;5.75;3.63;;;28.40;64.00;;;;;;4134171;28;20128;-78
2022/01/31 01:22:45;;;;;;;6.60;3.13;;;28.40;63.60;;;;;;4128654;28;20046;-79
2022/01/31 01:25:08;;;;;;;4.93;2.95;;;28.40;63.50;;;;;;4138922;28;20560;-78
2022/01/31 01:27:31;;;;;;;4.88;3.22;;;28.40;63.50;;;;;;4139572;28;20069;-78
2022/01/31 01:29:53;;;;;;;5.90;3.58;;;28.40;63.50;;;;;;4134449;28;20591;-78
2022/01/31 01:32:16;;;;;;;5.22;3.20;;;28.40;63.50;;;;;;4133511;28;20097;-81
2022/01/31 01:34:39;;;;;;;5.72;3.30;;;28.40;63.40;;;;;;4131086;28;20046;-78
2022/01/31 01:37:03;;;;;;;6.30;3.72;;;28.40;63.50;;;;;;4134802;28;20075;-79
2022/01/31 01:39:26;;;;;;;6.10;3.10;;;28.50;63.50;;;;;;4127578;28;20489;-78
2022/01/31 01:41:49;;;;;;;5.20;3.00;;;28.50;63.50;;;;;;4135660;28;20045;-80
2022/01/31 01:44:11;;;;;;;5.37;3.53;;;28.50;63.50;;;;;;4125667;28;20073;-79
2022/01/31 01:46:34;;;;;;;5.55;3.30;;;28.50;63.60;;;;;;4124855;28;20310;-79
2022/01/31 01:48:56;;;;;;;9.18;3.25;;;28.50;63.40;;;;;;4129148;28;20046;-75
2022/01/31 01:51:19;;;;;;;5.65;3.33;;;28.60;63.50;;;;;;4129514;28;20030;-80
2022/01/31 01:53:41;;;;;;;5.47;3.33;;;28.60;63.40;;;;;;4131530;28;20365;-79
2022/01/31 01:56:04;;;;;;;6.07;3.08;;;28.60;63.30;;;;;;4131436;28;20196;-81
2022/01/31 01:58:37;;;;;;;4.97;3.00;;;28.60;63.30;;;;;;4138943;28;20145;-78
2022/01/31 02:01:01;;;;;;;5.80;2.95;;;28.70;63.40;;;;;;4135742;28;20042;-80
2022/01/31 02:03:24;;;;;;;5.20;2.90;;;28.70;63.30;;;;;;4137470;28;20117;-77
2022/01/31 02:05:47;;;;;;;5.43;3.20;;;28.70;63.30;;;;;;4135555;28;20100;-74
2022/01/31 02:08:13;;;;;;;4.93;2.90;;;28.70;63.30;;;;;;4129054;28;20053;-76
2022/01/31 02:10:36;;;;;;;4.95;2.83;;;28.70;63.30;;;;;;4139027;28;20407;-77
2022/01/31 02:13:05;;;;;;;4.13;2.88;;;28.70;63.30;;;;;;4142535;28;20130;-72
2022/01/31 02:15:27;;;;;;;5.55;2.60;;;28.80;63.40;;;;;;4142710;28;20565;-80
2022/01/31 02:17:50;;;;;;;4.90;2.88;;;28.80;63.30;;;;;;4142591;28;20045;-78
2022/01/31 02:20:12;;;;;;;5.00;3.00;;;28.80;63.20;;;;;;4144243;28;20069;-76
2022/01/31 02:22:36;;;;;;;4.85;2.72;;;28.80;63.20;;;;;;4137207;28;20038;-75
2022/01/31 02:24:58;;;;;;;3.70;2.53;;;28.90;63.20;;;;;;4141204;28;20045;-75
2022/01/31 02:27:26;;;;;;;3.60;2.30;;;28.90;63.20;;;;;;4140541;28;20050;-80
2022/01/31 02:30:07;;;;;;;;;;;;;;;;;;;;;
2022/01/31 02:32:29;;;;;;;5.05;2.97;;;28.90;63.00;;;;;;4142729;28;20135;-79
2022/01/31 02:34:52;;;;;;;5.82;3.05;;;29.00;63.10;;;;;;4131711;28;20113;-77
2022/01/31 02:37:15;;;;;;;4.13;2.42;;;29.00;63.30;;;;;;4140346;28;20034;-78
2022/01/31 02:39:37;;;;;;;4.05;2.35;;;29.10;63.30;;;;;;4139791;28;20038;-80
2022/01/31 02:42:00;;;;;;;3.92;2.38;;;29.10;62.90;;;;;;4136854;28;20795;-78
2022/01/31 02:44:23;;;;;;;3.88;2.38;;;29.10;62.90;;;;;;4135870;28;20050;-78
2022/01/31 02:46:54;;;;;;;4.20;2.33;;;29.10;63.50;;;;;;4137264;28;20084;-78
2022/01/31 02:49:22;;;;;;;4.28;2.13;;;29.20;62.90;;;;;;4141297;28;20104;-78
2022/01/31 02:51:46;;;;;;;3.53;2.00;;;29.20;62.50;;;;;;4146303;28;20494;-79
2022/01/31 02:54:08;;;;;;;4.20;2.10;;;29.20;62.80;;;;;;4152480;28;20048;-75
2022/01/31 02:56:31;;;;;;;4.15;2.30;;;29.20;62.70;;;;;;4143670;28;20096;-79
2022/01/31 02:58:53;;;;;;;3.95;2.20;;;29.20;62.70;;;;;;4144588;28;20042;-79
2022/01/31 03:01:16;;;;;;;3.90;2.10;;;29.30;62.70;;;;;;4139462;28;20038;-78
2022/01/31 03:03:38;;;;;;;4.73;2.07;;;29.30;62.70;;;;;;4140707;28;20223;-79
2022/01/31 03:06:01;;;;;;;4.13;2.20;;;29.30;62.70;;;;;;4143317;28;20275;-77
2022/01/31 03:08:24;;;;;;;4.40;2.25;;;29.40;62.70;;;;;;4143835;28;20026;-78
2022/01/31 03:10:46;;;;;;;4.50;2.25;;;29.40;62.60;;;;;;4145098;28;20570;-79
2022/01/31 03:13:09;;;;;;;3.13;2.00;;;29.40;62.60;;;;;;4148129;28;20034;-78
2022/01/31 03:15:32;;;;;;;3.65;1.80;;;29.40;63.10;;;;;;4147459;28;20084;-80
2022/01/31 03:17:55;;;;;;;2.78;1.60;;;29.50;62.60;;;;;;4145756;28;20045;-70
2022/01/31 03:20:20;;;;;;;3.05;1.50;;;29.50;62.60;;;;;;4148031;28;20041;-69
2022/01/31 03:22:43;;;;;;;5.03;2.05;;;29.50;62.60;;;;;;4143226;28;20638;-70
2022/01/31 03:25:05;;;;;;;4.53;2.03;;;29.60;62.60;;;;;;4147351;28;20046;-71
2022/01/31 03:27:28;;;;;;;5.28;1.95;;;29.60;62.50;;;;;;4151715;28;20350;-69
2022/01/31 03:29:53;;;;;;;3.78;1.70;;;29.60;62.40;;;;;;4148583;28;20048;-75
2022/01/31 03:32:16;;;;;;;3.88;1.70;;;29.60;62.40;;;;;;4146332;28;20234;-69
2022/01/31 03:34:38;;;;;;;4.28;1.95;;;29.70;62.40;;;;;;4147513;28;20042;-71
2022/01/31 03:37:01;;;;;;;2.58;1.60;;;29.70;62.40;;;;;;4144998;28;20143;-71
2022/01/31 03:39:23;;;;;;;3.50;1.67;;;29.70;62.30;;;;;;4145800;28;20042;-70
2022/01/31 03:41:46;;;;;;;2.78;1.60;;;29.70;62.30;;;;;;4129648;28;20035;-71
2022/01/31 03:44:08;;;;;;;3.55;1.80;;;29.70;62.30;;;;;;4144771;28;20042;-71
2022/01/31 03:46:34;;;;;;;2.67;1.63;;;29.80;62.30;;;;;;4144047;28;20044;-71
2022/01/31 03:48:56;;;;;;;3.92;1.67;;;29.80;62.40;;;;;;4133520;28;20057;-71
2022/01/31 03:51:18;;;;;;;4.82;1.70;;;29.80;62.30;;;;;;4140136;28;20041;-71
2022/01/31 03:53:41;;;;;;;1.85;1.23;;;29.80;62.30;;;;;;4149091;28;20045;-71
2022/01/31 03:56:04;;;;;;;3.38;1.60;;;29.80;61.40;;;;;;4143181;28;20091;-71
2022/01/31 03:58:26;;;;;;;2.22;1.30;;;29.70;59.80;;;;;;4145806;28;20152;-70
2022/01/31 04:00:49;;;;;;;2.60;1.05;;;29.50;58.80;;;;;;4146122;28;20046;-72
2022/01/31 04:03:11;;;;;;;1.92;1.00;;;29.30;58.20;;;;;;4143454;28;20033;-69
2022/01/31 04:05:34;;;;;;;2.33;1.20;;;29.20;57.80;;;;;;4146976;28;20141;-72
2022/01/31 04:07:56;;;;;;;1.65;1.00;;;28.90;57.40;;;;;;4129988;28;20042;-71
2022/01/31 04:10:19;;;;;;;1.50;1.10;;;28.70;57.20;;;;;;4138158;28;20074;-70
2022/01/31 04:12:41;;;;;;;2.88;1.30;;;28.60;56.70;;;;;;4126892;28;20173;-70
2022/01/31 04:15:04;;;;;;;1.55;1.13;;;28.40;57.00;;;;;;4127413;28;20046;-71
2022/01/31 04:17:26;;;;;;;2.13;1.10;;;28.20;57.00;;;;;;4124658;28;20050;-69
2022/01/31 04:19:49;;;;;;;2.47;1.20;;;28.10;56.80;;;;;;4120495;28;20038;-72
2022/01/31 04:22:15;;;;;;;1.00;0.70;;;27.90;56.70;;;;;;4120764;28;20035;-70
2022/01/31 04:24:40;;;;;;;1.23;1.00;;;27.80;56.70;;;;;;4112349;28;20051;-71
2022/01/31 04:27:06;;;;;;;1.63;1.00;;;27.70;56.90;;;;;;4127554;28;20030;-70
2022/01/31 04:29:31;;;;;;;1.40;0.93;;;27.60;56.80;;;;;;4109795;28;20037;-70
2022/01/31 04:31:54;;;;;;;1.08;0.80;;;27.50;56.70;;;;;;4127783;28;20042;-70
2022/01/31 04:34:17;;;;;;;1.23;1.00;;;27.40;56.50;;;;;;4119146;28;20109;-70
2022/01/31 04:36:39;;;;;;;1.45;0.82;;;27.30;56.70;;;;;;4121209;28;20042;-70
2022/01/31 04:39:03;;;;;;;1.65;1.00;;;27.30;56.80;;;;;;4125126;28;20062;-70
2022/01/31 04:41:28;;;;;;;1.70;1.00;;;27.20;56.80;;;;;;4121635;28;20073;-69
2022/01/31 04:43:53;;;;;;;1.35;0.88;;;27.10;57.10;;;;;;4119647;28;20041;-71
2022/01/31 04:46:16;;;;;;;1.80;0.95;;;27.10;56.90;;;;;;4121734;28;20065;-70
2022/01/31 04:48:38;;;;;;;1.23;0.73;;;27.00;57.00;;;;;;4125152;28;21003;-69
2022/01/31 04:51:01;;;;;;;2.70;0.98;;;27.00;57.10;;;;;;4125739;28;20058;-68
2022/01/31 04:53:24;;;;;;;1.33;0.82;;;26.90;57.40;;;;;;4122190;28;20049;-65
2022/01/31 04:55:47;;;;;;;1.10;0.88;;;26.90;57.50;;;;;;4123683;28;20060;-66
2022/01/31 04:58:10;;;;;;;1.52;1.05;;;26.80;57.60;;;;;;4115844;28;20076;-65
2022/01/31 05:00:32;;;;;;;2.25;1.10;;;26.80;57.70;;;;;;4117900;28;20464;-68
2022/01/31 05:02:55;;;;;;;2.58;1.00;;;26.70;58.30;;;;;;4120317;28;20034;-69
2022/01/31 05:05:20;;;;;;;2.28;1.00;;;26.70;58.00;;;;;;4117640;28;20089;-66
2022/01/31 05:07:43;;;;;;;2.45;1.30;;;26.70;57.80;;;;;;4126531;28;20080;-69
2022/01/31 05:10:05;;;;;;;2.70;1.08;;;26.60;57.50;;;;;;4134224;28;20618;-68
2022/01/31 05:12:28;;;;;;;2.00;1.00;;;26.60;57.50;;;;;;4138039;28;20120;-70
2022/01/31 05:14:51;;;;;;;1.05;0.90;;;26.50;57.50;;;;;;4135224;28;20479;-70
2022/01/31 05:17:13;;;;;;;1.65;1.02;;;26.50;57.40;;;;;;4137699;28;20041;-69
2022/01/31 05:19:35;;;;;;;1.25;0.93;;;26.50;57.30;;;;;;4134406;28;20072;-69
2022/01/31 05:21:58;;;;;;;2.45;1.23;;;26.50;57.30;;;;;;4135909;28;20116;-69
2022/01/31 05:24:20;;;;;;;1.63;1.10;;;26.40;57.20;;;;;;4130438;28;20061;-71
2022/01/31 05:26:43;;;;;;;3.10;1.13;;;26.40;57.20;;;;;;4144516;28;20041;-71
2022/01/31 05:29:05;;;;;;;1.27;0.93;;;26.40;57.30;;;;;;4145263;28;20049;-69
2022/01/31 05:31:28;;;;;;;1.73;1.08;;;26.40;57.20;;;;;;4143754;28;20066;-71
2022/01/31 05:33:50;;;;;;;1.42;0.88;;;26.40;57.00;;;;;;4131760;28;20774;-69
2022/01/31 05:36:13;;;;;;;1.92;0.95;;;26.40;57.00;;;;;;4140588;28;20098;-70
2022/01/31 05:38:38;;;;;;;2.53;1.10;;;26.40;57.00;;;;;;4140261;28;20128;-72
2022/01/31 05:41:05;;;;;;;1.15;0.93;;;26.40;57.00;;;;;;4135501;28;20149;-70
2022/01/31 05:43:28;;;;;;;0.80;0.80;;;26.30;57.00;;;;;;4137949;28;20093;-69
2022/01/31 05:45:50;;;;;;;1.48;1.00;;;26.30;56.90;;;;;;4140709;28;20049;-77
2022/01/31 05:48:12;;;;;;;1.52;1.10;;;26.30;57.00;;;;;;4139135;28;20665;-79
2022/01/31 05:50:35;;;;;;;2.25;1.30;;;26.30;57.10;;;;;;4139741;28;20045;-81
2022/01/31 05:52:58;;;;;;;1.50;1.10;;;26.30;57.30;;;;;;4139765;28;20073;-80
2022/01/31 05:55:20;;;;;;;2.95;1.27;;;26.30;57.40;;;;;;4141192;28;20148;-80
2022/01/31 05:57:43;;;;;;;1.10;1.00;;;26.30;57.40;;;;;;4125447;28;20089;-79
2022/01/31 06:00:07;;;;;;;2.67;1.20;;;26.30;57.20;;;;;;4138410;28;20069;-76
2022/01/31 06:02:29;;;;;;;;;;;26.30;57.30;;;;;;4139474;28;20038;-72
2022/01/31 06:04:51;;;;;;;3.15;1.30;;;26.30;57.60;;;;;;4138087;28;19984;-77
2022/01/31 06:07:14;;;;;;;2.92;1.23;;;26.20;57.50;;;;;;4132436;28;20030;-74
2022/01/31 06:09:37;;;;;;;2.63;1.50;;;26.20;57.50;;;;;;4132153;28;20639;-66
2022/01/31 06:12:02;;;;;;;2.43;1.40;;;26.10;57.70;;;;;;4130729;28;20048;-67
2022/01/31 06:14:24;;;;;;;1.70;1.20;;;26.00;57.70;;;;;;4137691;28;20377;-70
2022/01/31 06:16:47;;;;;;;1.27;1.05;;;25.90;57.60;;;;;;4136319;28;20400;-73
2022/01/31 06:19:10;;;;;;;1.42;1.10;;;25.90;57.70;;;;;;4128091;28;20864;-69
2022/01/31 06:21:32;;;;;;;6.95;1.95;;;25.80;58.20;;;;;;4130606;28;20484;-71
2022/01/31 06:23:55;;;;;;;9.13;2.13;;;25.70;57.60;;;;;;4131785;28;20046;-74
2022/01/31 06:26:17;;;;;;;8.52;2.38;;;25.70;58.00;;;;;;4136724;28;20045;-72
2022/01/31 06:28:40;;;;;;;7.72;2.47;;;25.60;57.90;;;;;;4134191;28;20603;-73
2022/01/31 06:31:03;;;;;;;7.20;2.05;;;25.60;57.70;;;;;;4139679;28;20045;-71
2022/01/31 06:33:25;;;;;;;5.20;2.20;;;25.50;57.60;;;;;;4122293;28;20042;-72
2022/01/31 06:35:47;;;;;;;6.30;1.92;;;25.50;58.00;;;;;;4135190;28;20091;-72
2022/01/31 06:38:10;;;;;;;5.68;1.75;;;25.40;58.10;;;;;;4132934;28;20049;-72
2022/01/31 06:40:33;;;;;;;11.18;2.47;;;25.40;58.20;;;;;;4126401;28;20034;-72
2022/01/31 06:42:55;;;;;;;9.13;2.10;;;25.30;58.10;;;;;;4134578;28;20117;-69
2022/01/31 06:45:18;;;;;;;2.83;1.48;;;25.30;58.20;;;;;;4136437;28;20526;-70
2022/01/31 06:47:40;;;;;;;2.90;1.58;;;25.20;58.30;;;;;;4137016;28;20046;-72
2022/01/31 06:50:06;;;;;;;1.90;1.17;;;25.10;58.40;;;;;;4131044;28;20058;-71
2022/01/31 06:52:33;;;;;;;2.03;1.10;;;25.10;58.20;;;;;;4136729;28;20054;-71
2022/01/31 06:54:55;;;;;;;2.85;1.15;;;25.10;58.50;;;;;;4129417;28;20546;-72
2022/01/31 06:57:22;;;;;;;4.15;1.52;;;25.00;58.40;;;;;;4128631;28;20037;-72
2022/01/31 06:59:45;;;;;;;2.53;1.23;;;25.00;58.40;;;;;;4131724;28;20092;-72
2022/01/31 07:02:08;;;;;;;1.83;1.08;;;25.00;58.60;;;;;;4132439;28;20034;-74
2022/01/31 07:04:30;;;;;;;2.07;0.90;;;24.90;58.60;;;;;;4132715;28;20046;-72
2022/01/31 07:06:53;;;;;;;1.10;0.85;;;24.90;58.60;;;;;;4136806;28;20527;-72
2022/01/31 07:09:15;;;;;;;1.27;0.70;;;24.80;58.60;;;;;;4132305;28;20042;-75
2022/01/31 07:11:40;;;;;;;1.63;1.08;;;24.80;58.70;;;;;;4133782;28;20041;-73
2022/01/31 07:14:13;;;;;;;1.42;1.10;;;24.80;58.80;;;;;;4133838;28;20744;-75
2022/01/31 07:16:36;;;;;;;1.27;0.80;;;24.70;59.00;;;;;;4135788;28;20048;-72
2022/01/31 07:19:09;;;;;;;0.93;0.75;;;24.70;59.00;;;;;;4135814;28;20034;-70
2022/01/31 07:21:39;;;;;;;1.85;0.98;;;24.60;59.00;;;;;;4123905;28;20080;-74
2022/01/31 07:26:27;;;;;;;1.05;0.90;;;24.60;59.10;;;;;;4137465;28;20408;-75
2022/01/31 07:28:50;;;;;;;1.75;1.02;;;24.40;59.00;;;;;;4132426;28;20836;-69
2022/01/31 07:31:13;;;;;;;1.42;0.88;;;24.40;59.50;;;;;;4132716;28;20056;-72
2022/01/31 07:33:35;;;;;;;1.83;0.80;;;24.40;58.90;;;;;;4138733;28;20042;-72
2022/01/31 07:35:58;;;;;;;0.95;0.73;;;24.30;58.90;;;;;;4139891;28;20125;-72
2022/01/31 07:38:21;;;;;;;2.00;0.90;;;24.30;59.00;;;;;;4138071;28;20113;-69
2022/01/31 07:40:45;;;;;;;0.90;0.80;;;24.20;59.00;;;;;;4135466;28;20038;-71
2022/01/31 07:43:07;;;;;;;2.33;0.90;;;24.20;59.00;;;;;;4141306;28;20072;-72
2022/01/31 07:45:30;;;;;;;1.83;0.80;;;24.10;58.90;;;;;;4138706;28;20056;-70
2022/01/31 07:47:52;;;;;;;1.33;0.93;;;24.00;59.00;;;;;;4144206;28;20080;-71
2022/01/31 07:50:15;;;;;;;1.27;0.90;;;24.00;58.90;;;;;;4140076;28;20129;-73
2022/01/31 07:53:04;;;;;;;1.73;0.88;;;23.90;59.00;;;;;;4142639;28;20544;-71
2022/01/31 07:55:30;;;;;;;1.30;0.80;;;23.90;58.90;;;;;;4143798;28;20038;-72
2022/01/31 07:57:52;;;;;;;1.92;1.20;;;23.90;58.90;;;;;;4147201;28;20033;-70
2022/01/31 08:00:16;;;;;;;2.38;1.23;;;23.80;59.10;;;;;;4145646;28;20038;-72
2022/01/31 08:02:38;;;;;;;;;;;23.70;59.00;;;;;;4145700;28;20073;-72
2022/01/31 08:05:01;;;;;;;2.80;1.70;;;23.70;58.90;;;;;;4146612;28;20385;-70
2022/01/31 08:07:24;;;;;;;4.53;1.60;;;23.70;59.30;;;;;;4145601;28;20037;-71
2022/01/31 08:09:46;;;;;;;4.30;1.80;;;23.70;59.80;;;;;;4133155;28;20066;-70
2022/01/31 08:12:09;;;;;;;6.15;1.63;;;23.80;60.20;;;;;;4146088;28;20133;-71
2022/01/31 08:14:32;;;;;;;3.40;1.98;;;24.00;60.50;;;;;;4147339;28;20121;-70
2022/01/31 08:16:54;;;;;;;4.10;1.50;;;24.10;60.80;;;;;;4140443;28;20033;-70
2022/01/31 08:19:17;;;;;;;2.63;1.25;;;24.30;61.00;;;;;;4142584;28;20797;-71
2022/01/31 08:21:40;;;;;;;2.53;1.15;;;24.40;61.20;;;;;;4129872;28;20153;-71
2022/01/31 08:24:02;;;;;;;2.72;1.42;;;24.50;61.50;;;;;;4144614;28;20044;-70
2022/01/31 08:26:25;;;;;;;3.58;1.30;;;24.60;61.30;;;;;;4140184;28;20634;-69
2022/01/31 08:28:58;;;;;;;7.10;1.83;;;24.80;61.70;;;;;;4143129;28;20345;-71
2022/01/31 08:31:28;;;;;;;2.83;1.38;;;25.00;61.90;;;;;;4148121;28;20133;-71
2022/01/31 08:36:19;;;;;;;3.45;1.23;;;25.30;62.10;;;;;;4143732;28;20041;-71
2022/01/31 08:38:43;;;;;;;5.93;1.55;;;25.40;62.80;;;;;;4146454;28;20046;-70
2022/01/31 08:41:07;;;;;;;;;;;25.50;62.90;;;;;;4143924;28;20034;-71
2022/01/31 08:43:32;;;;;;;6.00;1.25;;;25.70;63.10;;;;;;4135169;28;20498;-73
2022/01/31 08:45:58;;;;;;;5.25;1.55;;;25.80;63.20;;;;;;4139141;28;20128;-72
2022/01/31 08:48:20;;;;;;;3.78;1.17;;;25.90;63.40;;;;;;4139961;28;20053;-71
2022/01/31 08:50:46;;;;;;;3.50;1.30;;;26.00;63.20;;;;;;4141950;28;20026;-75
2022/01/31 08:53:08;;;;;;;3.72;1.00;;;26.20;63.80;;;;;;4143190;28;20042;-73
2022/01/31 08:55:31;;;;;;;3.33;1.35;;;26.30;64.10;;;;;;4140716;28;20033;-71
2022/01/31 08:57:56;;;;;;;3.25;1.58;;;26.40;63.80;;;;;;4139487;28;20581;-72
2022/01/31 09:00:32;;;;;;;4.82;1.35;;;26.50;64.00;;;;;;4140359;28;20045;-75
2022/01/31 09:03:17;;;;;;;1.80;0.90;;;26.50;64.00;;;;;;4142115;28;20041;-74
2022/01/31 09:05:40;;;;;;;2.75;1.38;;;26.60;64.10;;;;;;4143355;28;20177;-69
2022/01/31 09:08:05;;;;;;;4.95;1.33;;;26.80;64.10;;;;;;4142033;28;20042;-70
2022/01/31 09:10:28;;;;;;;5.55;1.60;;;26.80;64.30;;;;;;4133543;28;20153;-71
2022/01/31 09:12:51;;;;;;;7.97;1.90;;;26.90;64.80;;;;;;4121971;28;20043;-70
2022/01/31 09:15:13;;;;;;;6.07;1.45;;;27.00;64.90;;;;;;4119254;28;20039;-70
2022/01/31 09:17:38;;;;;;;4.20;1.42;;;27.10;65.50;;;;;;4124110;28;20128;-71
2022/01/31 09:20:01;;;;;;;2.38;1.15;;;27.10;64.60;;;;;;4127509;28;20129;-68
2022/01/31 09:22:23;;;;;;;3.13;1.45;;;27.20;64.50;;;;;;4126366;28;20065;-67
2022/01/31 09:24:47;;;;;;;7.60;1.40;;;27.20;64.50;;;;;;4122010;28;20046;-78
2022/01/31 09:27:13;;;;;;;15.40;2.13;;;27.30;64.50;;;;;;4134333;28;20137;-78
2022/01/31 09:29:35;;;;;;;18.75;2.65;;;27.30;64.80;;;;;;4129112;28;20054;-77
2022/01/31 09:31:59;;;;;;;16.05;3.03;;;27.40;65.10;;;;;;4130234;28;20092;-80
2022/01/31 09:34:23;;;;;;;11.20;2.50;;;27.40;65.20;;;;;;4130035;28;20089;-76
2022/01/31 09:36:45;;;;;;;;;;;27.50;65.50;;;;;;4132507;28;20041;-80
2022/01/31 09:39:08;;;;;;;12.75;1.90;;;27.50;65.90;;;;;;4126257;28;19917;-78
2022/01/31 09:41:34;;;;;;;11.38;2.08;;;27.60;66.10;;;;;;4122782;28;20052;-78
2022/01/31 09:48:51;;;;;;;6.35;1.70;;;27.80;66.00;;;;;;4114446;28;20038;-74
2022/01/31 09:51:17;;;;;;;15.13;1.73;;;27.80;65.80;;;;;;4120388;28;20034;-76
2022/01/31 09:53:43;;;;;;;4.55;1.70;;;27.90;65.80;;;;;;4127208;28;20496;-78
2022/01/31 09:56:09;;;;;;;5.55;1.25;;;27.90;65.80;;;;;;4132237;28;20042;-78
2022/01/31 09:58:31;;;;;;;4.45;1.50;;;28.00;65.50;;;;;;4131502;28;20061;-77
2022/01/31 10:01:16;;;;;;;5.78;1.58;;;28.00;65.70;;;;;;4124042;28;20579;-78
2022/01/31 10:03:51;;;;;;;5.72;1.17;;;28.10;65.70;;;;;;4132372;28;20046;-76
2022/01/31 10:06:39;;;;;;;5.07;1.30;;;28.10;65.70;;;;;;4139918;28;20187;-76
2022/01/31 10:09:14;;;;;;;3.72;1.48;;;28.20;65.80;;;;;;4136202;28;20038;-79
2022/01/31 10:11:53;;;;;;;2.38;0.93;;;28.30;65.80;;;;;;4125012;28;20480;-78
2022/01/31 10:17:10;;;;;;;3.13;1.10;;;28.30;65.70;;;;;;4125327;28;20491;-82
2022/01/31 10:19:45;;;;;;;2.42;1.00;;;28.40;65.60;;;;;;4126698;28;20030;-76
2022/01/31 10:22:10;;;;;;;3.10;1.00;;;28.40;65.60;;;;;;4127736;28;20050;-75
2022/01/31 10:24:34;;;;;;;2.67;0.98;;;28.40;65.60;;;;;;4127222;28;20054;-79
2022/01/31 10:26:57;;;;;;;4.47;1.35;;;28.50;65.70;;;;;;4131419;28;20044;-78
2022/01/31 10:29:22;;;;;;;5.93;1.40;;;28.50;65.70;;;;;;4125545;28;20038;-79
2022/01/31 10:32:01;;;;;;;3.88;1.20;;;28.50;65.90;;;;;;4127555;28;20037;-76
2022/01/31 10:34:32;;;;;;;2.08;0.90;;;28.60;65.80;;;;;;4111702;28;20047;-81
2022/01/31 10:36:55;;;;;;;3.90;1.00;;;28.60;65.70;;;;;;4126196;28;20036;-81
2022/01/31 10:45:10;;;;;;;4.68;1.20;;;28.70;65.70;;;;;;4126409;28;20042;-78
2022/01/31 10:51:00;;;;;;;4.78;1.02;;;28.80;66.00;;;;;;4119415;28;20081;-82
2022/01/31 10:53:23;;;;;;;2.72;1.00;;;28.80;66.00;;;;;;4120495;28;20030;-79
2022/01/31 10:55:56;;;;;;;2.88;1.17;;;28.90;66.00;;;;;;4127125;28;20065;-78
2022/01/31 10:58:19;;;;;;;4.13;1.10;;;28.90;66.10;;;;;;4127873;28;20565;-80
2022/01/31 11:00:42;;;;;;;3.25;0.80;;;28.90;66.00;;;;;;4121906;28;20069;-80
2022/01/31 11:03:32;;;;;;;3.50;1.30;;;28.90;66.00;;;;;;4123759;28;20480;-80
2022/01/31 11:05:56;;;;;;;6.38;1.40;;;29.00;66.30;;;;;;4125946;28;20328;-84
2022/01/31 11:08:18;;;;;;;;;;;29.00;66.40;;;;;;4130476;28;20035;-76
2022/01/31 11:10:40;;;;;;;2.08;0.60;;;29.10;66.20;;;;;;4134468;28;20005;-82
2022/01/31 11:13:02;;;;;;;4.68;1.42;;;29.10;66.20;;;;;;4144529;28;20401;-82
2022/01/31 11:15:25;;;;;;;1.83;1.10;;;29.10;66.20;;;;;;4138306;28;20048;-81
2022/01/31 11:18:02;;;;;;;2.50;1.15;;;29.10;66.30;;;;;;4131549;28;20042;-79
2022/01/31 11:20:25;;;;;;;3.00;1.10;;;29.10;66.30;;;;;;4136467;28;20040;-79
2022/01/31 11:22:56;;;;;;;2.17;0.90;;;29.10;66.30;;;;;;4140899;28;20153;-81
2022/01/31 11:25:23;;;;;;;4.93;1.20;;;29.20;66.40;;;;;;4141779;28;20310;-79
2022/01/31 11:27:45;;;;;;;7.95;1.45;;;29.20;66.30;;;;;;4125913;28;20107;-79
2022/01/31 11:30:09;;;;;;;3.35;1.50;;;29.20;66.40;;;;;;4122894;28;20465;-78
2022/01/31 11:32:31;;;;;;;3.92;1.40;;;29.20;66.30;;;;;;4124378;28;20031;-83
2022/01/31 11:34:55;;;;;;;6.40;1.20;;;29.20;66.30;;;;;;4128298;28;20038;-80
2022/01/31 11:37:22;;;;;;;4.55;1.52;;;29.20;66.30;;;;;;4122056;28;20049;-79
2022/01/31 11:39:58;;;;;;;2.40;0.95;;;29.30;66.40;;;;;;4124157;28;20157;-80
2022/01/31 11:42:21;;;;;;;4.88;1.20;;;29.30;66.40;;;;;;4124468;28;20452;-81
2022/01/31 11:45:00;;;;;;;2.50;0.90;;;29.30;66.30;;;;;;4121723;28;20055;-81
2022/01/31 11:47:25;;;;;;;2.17;0.85;;;29.30;66.30;;;;;;4121651;28;20043;-79
2022/01/31 11:49:52;;;;;;;3.22;1.40;;;29.30;66.20;;;;;;4115200;28;20042;-80
2022/01/31 11:52:17;;;;;;;3.50;0.98;;;29.30;66.20;;;;;;4123937;28;20045;-80
2022/01/31 11:54:57;;;;;;;5.90;1.20;;;29.40;66.20;;;;;;4132692;28;20043;-81
2022/01/31 11:57:28;;;;;;;4.10;1.10;;;29.40;66.20;;;;;;4125074;28;20081;-82
2022/01/31 12:00:03;;;;;;;2.83;1.38;;;29.40;66.30;;;;;;4128536;28;20501;-79
2022/01/31 12:02:29;;;;;;;5.95;1.25;;;29.40;66.20;;;;;;4126845;28;20038;-82
2022/01/31 12:05:00;;;;;;;3.47;0.93;;;29.40;66.20;;;;;;4121723;28;20454;-81
2022/01/31 12:07:44;;;;;;;4.65;1.00;;;29.40;66.10;;;;;;4129142;28;20040;-80
2022/01/31 12:10:35;;;;;;;2.40;0.77;;;29.50;66.10;;;;;;4129287;28;20050;-80
2022/01/31 12:13:11;;;;;;;2.40;1.15;;;29.50;65.40;;;;;;4128021;28;20034;-80
2022/01/31 12:18:48;;;;;;;2.63;0.90;;;29.50;66.00;;;;;;4140093;28;21000;-80
2022/01/31 12:24:01;;;;;;;2.17;1.10;;;29.50;66.30;;;;;;4139468;28;20427;-81
2022/01/31 12:26:47;;;;;;;3.40;1.10;;;29.60;66.50;;;;;;4138982;28;20464;-82
2022/01/31 12:29:15;;;;;;;4.60;1.13;;;29.60;66.60;;;;;;4143345;28;20949;-82
2022/01/31 12:31:45;;;;;;;2.40;1.00;;;29.60;66.40;;;;;;4123698;28;20134;-81
2022/01/31 12:34:32;;;;;;;2.67;1.30;;;29.60;66.20;;;;;;4140797;28;20030;-81
2022/01/31 12:37:00;;;;;;;2.17;0.70;;;29.60;66.00;;;;;;4144709;28;20126;-81
2022/01/31 12:39:37;;;;;;;8.45;1.10;;;29.60;66.10;;;;;;4137271;28;20045;-80
2022/01/31 12:42:41;;;;;;;5.78;1.15;;;29.60;66.50;;;;;;4139286;28;20062;-81
2022/01/31 12:45:04;;;;;;;2.80;1.35;;;29.60;66.80;;;;;;4129195;28;20548;-79
2022/01/31 12:47:26;;;;;;;5.70;0.87;;;29.60;67.00;;;;;;4136944;28;20041;-81
2022/01/31 12:50:25;;;;;;;3.92;1.20;;;29.60;67.20;;;;;;4138218;28;20121;-79
2022/01/31 12:52:48;;;;;;;5.95;1.30;;;29.60;67.20;;;;;;4135607;28;20037;-79
2022/01/31 12:55:12;;;;;;;3.38;1.00;;;29.60;67.40;;;;;;4135443;28;20034;-80
2022/01/31 12:57:34;;;;;;;2.17;0.88;;;29.60;67.50;;;;;;4138354;28;20056;-80
2022/01/31 12:59:57;;;;;;;4.18;1.30;;;29.60;67.60;;;;;;4129703;28;20058;-80
2022/01/31 13:02:19;;;;;;;3.85;1.15;;;29.60;67.50;;;;;;4139457;28;20038;-78
2022/01/31 13:04:48;;;;;;;4.07;0.80;;;29.60;67.60;;;;;;4138825;28;20068;-79
2022/01/31 13:07:15;;;;;;;4.07;1.02;;;29.60;67.60;;;;;;4139993;28;20030;-81
2022/01/31 13:09:43;;;;;;;2.33;1.00;;;29.70;67.70;;;;;;4134609;28;20041;-81